Time;durP1;ratioP1;P1;durP2;ratioP2;P2;SDS_P1;SDS_P2;PMS_P1;PMS_P2;Temp;Humidity;BMP_temperature;BMP_pressure;BME280_temperature;BME280_humidity;BME280_pressure;Samples;Min_cycle;Max_cycle;Signal;HPM_P1;HPM_P2
2024/01/07 00:02:08;;;;;;;18.93;12.63;;;;;;;4.28;100.00;152463.75;4986598;28;20555;-76
2024/01/07 00:04:35;;;;;;;20.53;13.87;;;;;;;4.26;100.00;152458.56;4987622;28;20453;-77
2024/01/07 00:07:01;;;;;;;17.50;12.67;;;;;;;4.29;100.00;152465.00;4984928;28;20447;-77
2024/01/07 00:09:28;;;;;;;19.17;12.27;;;;;;;4.34;100.00;152476.63;4958716;28;20558;-76
2024/01/07 00:11:56;;;;;;;20.60;13.53;;;;;;;4.33;100.00;152475.34;4971791;28;20986;-77
2024/01/07 00:14:22;;;;;;;19.60;13.17;;;;;;;4.30;100.00;152467.59;4986054;28;20456;-76
2024/01/07 00:16:49;;;;;;;19.37;12.57;;;;;;;4.33;100.00;152475.34;4984126;28;20489;-77
2024/01/07 00:19:15;;;;;;;18.33;13.23;;;;;;;4.37;100.00;152484.38;4970812;28;20508;-76
2024/01/07 00:21:42;;;;;;;17.50;12.57;;;;;;;4.34;100.00;152477.94;4986894;28;20479;-77
2024/01/07 00:24:09;;;;;;;22.10;14.00;;;;;;;4.33;100.00;152475.34;4989934;28;20452;-76
2024/01/07 00:26:35;;;;;;;20.30;12.83;;;;;;;4.31;100.00;152471.44;4989481;28;20449;-76
2024/01/07 00:29:03;;;;;;;19.90;14.00;;;;;;;4.32;100.00;152472.75;4952339;28;20485;-76
2024/01/07 00:31:30;;;;;;;19.97;13.67;;;;;;;4.32;100.00;152472.75;4988343;28;20811;-77
2024/01/07 00:33:56;;;;;;;16.47;12.17;;;;;;;4.35;100.00;152480.47;4972352;28;20438;-77
2024/01/07 00:36:23;;;;;;;18.00;12.70;;;;;;;4.32;100.00;152472.75;4965387;28;20469;-77
2024/01/07 00:38:49;;;;;;;18.00;12.10;;;;;;;4.34;100.00;152477.94;4970371;28;20450;-76
2024/01/07 00:41:16;;;;;;;17.17;11.57;;;;;;;4.32;100.00;152472.75;4969137;28;20453;-77
2024/01/07 00:43:42;;;;;;;16.80;12.17;;;;;;;4.36;100.00;152481.78;4974878;28;20433;-77
2024/01/07 00:46:10;;;;;;;19.30;12.47;;;;;;;4.33;100.00;152475.34;4986913;28;20461;-77
2024/01/07 00:48:37;;;;;;;17.47;11.80;;;;;;;4.36;100.00;152481.78;4954631;28;20508;-77
2024/01/07 00:51:05;;;;;;;17.93;12.57;;;;;;;4.34;100.00;152477.94;4972143;28;20446;-77
2024/01/07 00:53:31;;;;;;;17.70;12.83;;;;;;;4.34;100.00;152477.94;4986829;28;20465;-77
2024/01/07 00:55:58;;;;;;;17.67;11.93;;;;;;;4.35;100.00;152480.47;4969977;28;20457;-77
2024/01/07 00:58:24;;;;;;;16.67;11.60;;;;;;;4.37;100.00;152484.38;4970533;28;20425;-77
2024/01/07 01:00:53;;;;;;;18.83;12.87;;;;;;;4.39;100.00;152490.81;4975234;28;20508;-77
2024/01/07 01:03:21;;;;;;;17.77;11.50;;;;;;;4.33;100.00;152475.34;4987459;28;20534;-78
2024/01/07 01:05:48;;;;;;;16.57;11.37;;;;;;;4.30;100.00;152468.91;4985256;28;20445;-77
2024/01/07 01:08:14;;;;;;;17.50;11.90;;;;;;;4.31;100.00;152470.19;4971635;28;20461;-78
2024/01/07 01:10:43;;;;;;;16.97;11.33;;;;;;;4.35;100.00;152479.19;4952068;28;20876;-77
2024/01/07 01:13:09;;;;;;;18.27;12.30;;;;;;;4.37;100.00;152485.63;4983318;28;20467;-77
2024/01/07 01:15:37;;;;;;;20.43;12.60;;;;;;;4.35;100.00;152480.47;4986867;28;20457;-77
2024/01/07 01:18:04;;;;;;;19.47;11.97;;;;;;;4.31;100.00;152470.19;4971332;28;20449;-78
2024/01/07 01:20:32;;;;;;;19.03;12.70;;;;;;;4.37;100.00;152485.63;4987449;28;20477;-77
2024/01/07 01:22:58;;;;;;;19.53;12.63;;;;;;;4.35;100.00;152480.47;4986542;28;20449;-77
2024/01/07 01:25:27;;;;;;;18.33;10.33;;;;;;;4.32;100.00;152472.75;4974918;28;20442;-77
2024/01/07 01:27:53;;;;;;;17.50;12.50;;;;;;;4.37;100.00;152484.38;4972721;28;20794;-77
2024/01/07 01:30:20;;;;;;;17.70;12.30;;;;;;;4.35;100.00;152480.47;4986972;28;20480;-77
2024/01/07 01:32:46;;;;;;;18.03;11.70;;;;;;;4.33;100.00;152475.34;4974016;28;20561;-77
2024/01/07 01:35:13;;;;;;;15.37;12.10;;;;;;;4.32;100.00;152472.75;4992423;28;20448;-78
2024/01/07 01:37:41;;;;;;;17.87;11.83;;;;;;;4.36;100.00;152483.06;4975648;28;20456;-77
2024/01/07 01:40:09;;;;;;;16.07;11.67;;;;;;;4.33;100.00;152475.34;4988718;28;20464;-77
2024/01/07 01:42:36;;;;;;;17.63;11.70;;;;;;;4.32;100.00;152472.75;4974679;28;20454;-78
2024/01/07 01:45:02;;;;;;;17.90;11.50;;;;;;;4.32;100.00;152472.75;4958994;28;20461;-78
2024/01/07 01:47:29;;;;;;;15.73;10.90;;;;;;;4.29;100.00;152465.00;4972238;28;20464;-77
2024/01/07 01:49:56;;;;;;;18.33;12.37;;;;;;;4.33;100.00;152475.34;4972230;28;20481;-77
2024/01/07 01:52:25;;;;;;;19.43;13.40;;;;;;;4.31;100.00;152471.44;4973200;28;20821;-78
2024/01/07 01:54:53;;;;;;;18.67;12.00;;;;;;;4.30;100.00;152468.91;4973111;28;20533;-77
2024/01/07 01:57:22;;;;;;;20.10;12.90;;;;;;;4.31;100.00;152470.19;4972763;28;21014;-77
2024/01/07 01:59:49;;;;;;;18.10;12.03;;;;;;;4.31;100.00;152470.19;4955232;28;21042;-77
2024/01/07 02:02:16;;;;;;;19.63;13.37;;;;;;;4.30;100.00;152467.59;4993095;28;20944;-77
2024/01/07 02:04:42;;;;;;;20.70;12.97;;;;;;;4.27;100.00;152459.88;4992384;28;20792;-77
2024/01/07 02:07:09;;;;;;;21.60;12.17;;;;;;;4.26;100.00;152457.31;4960533;28;20994;-77
2024/01/07 02:09:36;;;;;;;22.00;13.47;;;;;;;4.26;100.00;152457.31;4973467;28;20469;-77
2024/01/07 02:12:04;;;;;;;19.67;13.23;;;;;;;4.26;100.00;152458.56;4974739;28;20469;-77
2024/01/07 02:14:31;;;;;;;21.17;12.67;;;;;;;4.23;100.00;152449.59;4967250;28;20454;-76
2024/01/07 02:16:58;;;;;;;19.87;12.60;;;;;;;4.21;100.00;152444.41;4988575;28;20468;-77
2024/01/07 02:19:24;;;;;;;22.87;13.67;;;;;;;4.21;100.00;152444.41;4986084;28;20451;-77
2024/01/07 02:21:51;;;;;;;19.50;14.10;;;;;;;4.23;100.00;152449.59;4970887;28;20476;-77
2024/01/07 02:24:19;;;;;;;20.00;14.37;;;;;;;4.19;100.00;152440.56;4968669;28;20449;-76
2024/01/07 02:26:46;;;;;;;26.00;14.30;;;;;;;4.23;100.00;152450.88;4990170;28;20441;-77
2024/01/07 02:29:13;;;;;;;21.03;12.90;;;;;;;4.20;100.00;152443.16;4972576;28;20524;-77
2024/01/07 02:31:39;;;;;;;24.23;14.13;;;;;;;4.17;100.00;152434.13;4972075;28;20469;-77
2024/01/07 02:34:06;;;;;;;21.90;14.23;;;;;;;4.14;100.00;152426.38;4973669;28;20605;-76
2024/01/07 02:36:32;;;;;;;23.60;14.37;;;;;;;4.15;100.00;152430.28;4972199;28;20462;-77
2024/01/07 02:38:58;;;;;;;22.50;14.37;;;;;;;4.12;100.00;152421.25;4972839;28;20442;-77
2024/01/07 02:41:26;;;;;;;22.60;15.37;;;;;;;4.18;100.00;152436.72;4968878;28;20465;-76
2024/01/07 02:43:53;;;;;;;22.03;15.30;;;;;;;4.17;100.00;152435.41;4992047;28;20453;-77
2024/01/07 02:46:20;;;;;;;25.27;15.07;;;;;;;4.15;100.00;152430.28;4951868;28;20463;-77
2024/01/07 02:48:47;;;;;;;23.47;13.57;;;;;;;4.18;100.00;152437.97;4988314;28;20537;-76
2024/01/07 02:51:13;;;;;;;26.40;14.60;;;;;;;4.15;100.00;152428.97;4973907;28;20441;-77
2024/01/07 02:53:40;;;;;;;19.67;12.53;;;;;;;4.14;100.00;152426.38;4972258;28;20449;-76
2024/01/07 02:56:08;;;;;;;23.07;14.10;;;;;;;4.11;100.00;152419.94;4989964;28;20449;-76
2024/01/07 02:58:36;;;;;;;21.90;14.10;;;;;;;4.10;100.00;152416.09;4972516;28;20441;-77
2024/01/07 03:01:03;;;;;;;18.87;13.60;;;;;;;4.10;100.00;152417.34;4968805;28;20465;-77
2024/01/07 03:03:29;;;;;;;24.13;15.37;;;;;;;4.11;100.00;152418.66;4984159;28;20438;-77
2024/01/07 03:05:56;;;;;;;23.20;13.50;;;;;;;4.11;100.00;152419.94;4970880;28;20445;-77
2024/01/07 03:08:22;;;;;;;24.07;14.57;;;;;;;4.09;100.00;152413.50;4987022;28;20461;-77
2024/01/07 03:10:49;;;;;;;23.67;14.10;;;;;;;4.09;100.00;152413.50;4988869;28;20520;-77
2024/01/07 03:13:15;;;;;;;22.10;13.63;;;;;;;4.06;100.00;152407.06;4969259;28;20457;-77
2024/01/07 03:15:43;;;;;;;19.73;13.23;;;;;;;4.03;100.00;152399.34;4988211;28;20827;-77
2024/01/07 03:18:10;;;;;;;18.00;12.37;;;;;;;4.04;100.00;152401.94;4986080;28;20480;-77
2024/01/07 03:20:36;;;;;;;20.13;13.27;;;;;;;4.05;100.00;152403.22;4988282;28;20508;-77
2024/01/07 03:23:03;;;;;;;20.70;12.53;;;;;;;4.04;100.00;152400.63;4990444;28;20450;-77
2024/01/07 03:25:29;;;;;;;21.77;13.70;;;;;;;4.03;100.00;152398.03;4983950;28;20579;-77
2024/01/07 03:27:56;;;;;;;24.97;14.37;;;;;;;4.04;100.00;152400.63;4983568;28;20461;-77
2024/01/07 03:30:22;;;;;;;21.60;14.30;;;;;;;4.06;100.00;152405.78;4971453;28;20531;-77
2024/01/07 03:32:50;;;;;;;18.10;13.83;;;;;;;4.08;100.00;152410.91;4986415;28;20453;-77
2024/01/07 03:35:17;;;;;;;19.10;12.97;;;;;;;4.06;100.00;152405.78;4986495;28;20437;-77
2024/01/07 03:37:43;;;;;;;21.17;14.67;;;;;;;4.04;100.00;152401.94;4985790;28;20449;-76
2024/01/07 03:40:11;;;;;;;19.60;13.70;;;;;;;4.01;100.00;152394.19;4990078;28;20789;-76
2024/01/07 03:42:38;;;;;;;18.53;13.70;;;;;;;4.01;100.00;152392.91;4972561;28;20901;-76
2024/01/07 03:45:05;;;;;;;23.37;14.10;;;;;;;3.98;100.00;152386.47;4971790;28;20468;-76
2024/01/07 03:47:32;;;;;;;19.30;13.13;;;;;;;3.98;100.00;152385.16;4972141;28;20465;-77
2024/01/07 03:50:00;;;;;;;16.10;11.33;;;;;;;3.91;100.00;152367.16;4970372;28;21039;-77
2024/01/07 03:52:26;;;;;;;17.47;12.40;;;;;;;3.90;100.00;152364.56;4988224;28;20456;-77
2024/01/07 03:54:53;;;;;;;17.23;11.83;;;;;;;3.92;100.00;152369.75;4985239;28;20822;-77
2024/01/07 03:57:19;;;;;;;18.57;13.30;;;;;;;3.89;100.00;152362.00;4980750;28;20481;-77
2024/01/07 03:59:46;;;;;;;19.47;12.43;;;;;;;3.92;100.00;152369.75;4988454;28;20873;-77
2024/01/07 04:02:16;;;;;;;21.80;14.13;;;;;;;3.90;100.00;152365.84;4961513;28;20462;-77
2024/01/07 04:04:42;;;;;;;19.23;12.20;;;;;;;3.90;100.00;152365.84;4969435;28;20466;-77
2024/01/07 04:07:10;;;;;;;20.00;13.37;;;;;;;3.89;100.00;152363.25;4990170;28;20776;-77
2024/01/07 04:09:37;;;;;;;19.63;14.07;;;;;;;3.87;100.00;152356.81;4967874;28;20473;-78
2024/01/07 04:12:04;;;;;;;18.83;12.60;;;;;;;3.88;100.00;152359.44;4968220;28;20470;-77
2024/01/07 04:14:33;;;;;;;21.73;14.20;;;;;;;3.84;100.00;152350.41;4964445;28;20460;-77
2024/01/07 04:17:00;;;;;;;20.87;14.33;;;;;;;3.89;100.00;152362.00;4989967;28;20447;-77
2024/01/07 04:19:26;;;;;;;18.40;13.40;;;;;;;3.90;100.00;152364.56;4986958;28;20460;-77
2024/01/07 04:21:53;;;;;;;19.07;13.23;;;;;;;3.88;100.00;152359.44;4989988;28;20449;-77
2024/01/07 04:24:21;;;;;;;17.50;13.40;;;;;;;3.91;100.00;152367.16;4964412;28;20803;-77
2024/01/07 04:26:47;;;;;;;19.70;13.30;;;;;;;3.87;100.00;152358.13;4985019;28;20555;-77
2024/01/07 04:29:14;;;;;;;17.37;12.20;;;;;;;3.87;100.00;152356.81;4967691;28;20437;-76
2024/01/07 04:31:40;;;;;;;20.03;13.90;;;;;;;3.85;100.00;152353.00;4970040;28;20453;-76
2024/01/07 04:34:07;;;;;;;17.73;13.10;;;;;;;3.85;100.00;152351.69;4971109;28;20438;-77
2024/01/07 04:36:33;;;;;;;19.30;12.70;;;;;;;3.81;100.00;152341.41;4987562;28;20462;-77
2024/01/07 04:39:00;;;;;;;20.47;14.67;;;;;;;3.79;100.00;152337.53;4985764;28;20461;-76
2024/01/07 04:41:27;;;;;;;16.27;13.00;;;;;;;3.80;100.00;152340.13;4980039;28;20499;-77
2024/01/07 04:43:54;;;;;;;19.00;12.03;;;;;;;3.81;100.00;152341.41;5004191;28;20445;-77
2024/01/07 04:46:20;;;;;;;18.83;11.87;;;;;;;3.83;100.00;152346.56;4966014;28;20461;-77
2024/01/07 04:48:47;;;;;;;21.50;14.20;;;;;;;3.82;100.00;152345.25;4986872;28;20468;-76
2024/01/07 04:51:14;;;;;;;22.03;12.80;;;;;;;3.84;100.00;152349.16;4988321;28;20488;-77
2024/01/07 04:53:40;;;;;;;17.20;12.33;;;;;;;3.83;100.00;152346.56;4984883;28;20466;-77
2024/01/07 04:56:07;;;;;;;17.87;13.10;;;;;;;3.82;100.00;152343.97;4989070;28;20459;-77
2024/01/07 04:58:35;;;;;;;19.00;11.00;;;;;;;3.81;100.00;152341.41;4988886;28;20888;-77
2024/01/07 05:01:02;;;;;;;19.20;12.30;;;;;;;3.78;100.00;152333.69;4988513;28;20485;-76
2024/01/07 05:03:28;;;;;;;21.83;13.10;;;;;;;3.78;100.00;152333.69;4977922;28;20511;-76
2024/01/07 05:05:55;;;;;;;20.67;12.73;;;;;;;3.78;100.00;152333.69;4988499;28;20460;-76
2024/01/07 05:08:21;;;;;;;19.97;13.17;;;;;;;3.78;100.00;152333.69;4995192;28;20839;-76
2024/01/07 05:10:48;;;;;;;17.67;12.27;;;;;;;3.80;100.00;152338.81;4992910;28;20557;-76
2024/01/07 05:13:14;;;;;;;18.30;11.87;;;;;;;3.81;100.00;152341.41;4992320;28;20453;-76
2024/01/07 05:15:42;;;;;;;18.07;12.97;;;;;;;3.79;100.00;152337.53;4982996;28;20572;-76
2024/01/07 05:18:09;;;;;;;17.30;12.87;;;;;;;3.80;100.00;152338.81;4990335;28;20456;-75
2024/01/07 05:20:36;;;;;;;15.87;12.30;;;;;;;3.80;100.00;152340.13;4986844;28;20489;-76
2024/01/07 05:23:02;;;;;;;19.60;12.60;;;;;;;3.79;100.00;152336.22;4991960;28;20970;-76
2024/01/07 05:25:29;;;;;;;16.07;11.73;;;;;;;3.75;100.00;152325.94;4977931;28;20449;-76
2024/01/07 05:27:56;;;;;;;20.00;12.80;;;;;;;3.76;100.00;152328.53;4975896;28;20452;-76
2024/01/07 05:30:23;;;;;;;18.90;12.87;;;;;;;3.73;100.00;152320.81;4974117;28;20477;-76
2024/01/07 05:32:50;;;;;;;17.17;12.17;;;;;;;3.72;100.00;152319.50;4990145;28;20473;-76
2024/01/07 05:35:17;;;;;;;16.10;11.60;;;;;;;3.72;100.00;152318.22;4992829;28;20457;-76
2024/01/07 05:37:43;;;;;;;19.77;13.10;;;;;;;3.71;100.00;152315.69;4975234;28;20474;-76
2024/01/07 05:40:11;;;;;;;19.97;11.97;;;;;;;3.69;100.00;152313.09;4975173;28;20454;-76
2024/01/07 05:42:38;;;;;;;22.07;13.40;;;;;;;3.73;100.00;152320.81;4975908;28;20458;-76
2024/01/07 05:45:05;;;;;;;20.27;13.27;;;;;;;3.73;100.00;152320.81;4975598;28;20441;-76
2024/01/07 05:47:31;;;;;;;18.23;12.87;;;;;;;3.72;100.00;152318.22;4987368;28;20461;-76
2024/01/07 05:49:59;;;;;;;15.50;10.60;;;;;;;3.73;100.00;152320.81;4991460;28;20485;-76
2024/01/07 05:52:26;;;;;;;15.77;11.37;;;;;;;3.68;100.00;152310.50;4974775;28;20464;-76
2024/01/07 05:54:52;;;;;;;15.90;10.73;;;;;;;3.68;100.00;152309.19;4990954;28;20468;-76
2024/01/07 05:57:19;;;;;;;16.13;11.67;;;;;;;3.65;100.00;152302.75;4976295;28;20491;-76
2024/01/07 05:59:46;;;;;;;16.00;11.93;;;;;;;3.66;100.00;152305.34;4978342;28;20464;-76
2024/01/07 06:02:12;;;;;;;16.03;11.40;;;;;;;3.67;100.00;152307.94;4968761;28;20464;-76
2024/01/07 06:04:39;;;;;;;15.37;10.60;;;;;;;3.63;100.00;152297.63;4977284;28;20484;-75
2024/01/07 06:07:07;;;;;;;14.20;10.13;;;;;;;3.62;100.00;152293.78;4983368;28;20495;-76
2024/01/07 06:09:33;;;;;;;17.93;12.00;;;;;;;3.61;100.00;152292.47;4981057;28;20449;-76
2024/01/07 06:12:00;;;;;;;17.10;10.63;;;;;;;3.63;100.00;152296.31;4980576;28;20520;-76
2024/01/07 06:14:26;;;;;;;18.57;13.20;;;;;;;3.61;100.00;152292.47;4967381;28;20458;-76
2024/01/07 06:16:53;;;;;;;17.00;10.80;;;;;;;3.57;100.00;152282.16;4969912;28;20991;-76
2024/01/07 06:19:22;;;;;;;23.07;13.43;;;;;;;3.56;100.00;152279.63;4978670;28;20836;-76
2024/01/07 06:21:47;;;;;;;17.83;11.73;;;;;;;3.54;100.00;152273.19;4952828;28;20474;-76
2024/01/07 06:24:15;;;;;;;17.70;11.27;;;;;;;3.56;100.00;152278.31;4977149;28;20451;-76
2024/01/07 06:26:42;;;;;;;15.37;11.23;;;;;;;3.54;100.00;152273.19;4970176;28;20208;-76
2024/01/07 06:29:09;;;;;;;18.13;12.20;;;;;;;3.53;100.00;152271.88;4978953;28;20790;-76
2024/01/07 06:31:36;;;;;;;14.80;10.77;;;;;;;3.54;100.00;152274.47;4967062;28;20813;-76
2024/01/07 06:34:03;;;;;;;17.43;11.57;;;;;;;3.55;100.00;152277.03;4978826;28;20879;-76
2024/01/07 06:36:29;;;;;;;16.97;11.67;;;;;;;3.54;100.00;152274.47;4979992;28;20450;-76
2024/01/07 06:38:56;;;;;;;20.30;12.33;;;;;;;3.52;100.00;152269.28;4978201;28;20787;-76
2024/01/07 06:41:23;;;;;;;15.47;11.33;;;;;;;3.53;100.00;152270.59;4969793;28;20818;-76
2024/01/07 06:43:52;;;;;;;18.77;12.10;;;;;;;3.52;100.00;152269.28;4980681;28;21055;-76
2024/01/07 06:46:18;;;;;;;17.27;12.60;;;;;;;3.52;100.00;152269.28;4960632;28;20485;-75
2024/01/07 06:48:45;;;;;;;18.00;12.43;;;;;;;3.52;100.00;152269.28;4981836;28;20444;-76
2024/01/07 06:51:12;;;;;;;17.33;12.90;;;;;;;3.51;100.00;152266.75;4982332;28;20474;-76
2024/01/07 06:53:38;;;;;;;19.00;12.00;;;;;;;3.53;100.00;152271.88;4980803;28;20475;-77
2024/01/07 06:56:05;;;;;;;16.73;11.20;;;;;;;3.53;100.00;152271.88;4980568;28;20468;-76
2024/01/07 06:58:33;;;;;;;18.17;13.20;;;;;;;3.54;100.00;152274.47;4961598;28;21091;-76
2024/01/07 07:00:59;;;;;;;18.47;12.50;;;;;;;3.51;100.00;152265.44;4977640;28;20561;-76
2024/01/07 07:03:26;;;;;;;16.43;12.33;;;;;;;3.49;100.00;152260.31;4979068;28;20474;-76
2024/01/07 07:05:53;;;;;;;18.60;12.10;;;;;;;3.50;100.00;152262.84;4978978;28;20457;-76
2024/01/07 07:08:19;;;;;;;18.13;13.50;;;;;;;3.48;100.00;152259.00;4963861;28;20476;-76
2024/01/07 07:10:46;;;;;;;18.23;13.23;;;;;;;3.49;100.00;152260.31;4982511;28;20481;-76
2024/01/07 07:13:14;;;;;;;15.77;12.27;;;;;;;3.46;100.00;152253.88;4977538;28;20454;-76
2024/01/07 07:15:42;;;;;;;19.40;12.13;;;;;;;3.50;100.00;152262.84;4975783;28;20530;-75
2024/01/07 07:18:08;;;;;;;18.93;11.90;;;;;;;3.49;100.00;152260.31;4978787;28;20442;-76
2024/01/07 07:20:35;;;;;;;18.23;12.10;;;;;;;3.45;100.00;152251.28;4978431;28;20460;-76
2024/01/07 07:23:01;;;;;;;18.27;12.17;;;;;;;3.39;100.00;152235.81;4967913;28;20453;-76
2024/01/07 07:25:28;;;;;;;16.90;11.30;;;;;;;3.34;100.00;152222.97;4978435;28;20908;-75
2024/01/07 07:27:56;;;;;;;19.47;12.43;;;;;;;3.31;100.00;152215.22;4967985;28;20473;-76
2024/01/07 07:30:22;;;;;;;16.47;12.27;;;;;;;3.26;100.00;152202.38;4977058;28;21581;-76
2024/01/07 07:32:50;;;;;;;14.97;11.30;;;;;;;3.21;100.00;152189.50;4958661;28;20465;-76
2024/01/07 07:35:17;;;;;;;18.37;11.90;;;;;;;3.20;100.00;152186.97;4977434;28;20577;-76
2024/01/07 07:37:44;;;;;;;18.53;12.90;;;;;;;3.20;100.00;152185.66;4976518;28;20488;-76
2024/01/07 07:40:12;;;;;;;17.73;11.60;;;;;;;3.18;100.00;152181.78;4958841;28;20484;-76
2024/01/07 07:42:40;;;;;;;19.53;12.87;;;;;;;3.13;100.00;152168.91;4980757;28;20477;-76
2024/01/07 07:45:07;;;;;;;14.40;10.53;;;;;;;3.11;100.00;152163.78;4982502;28;20537;-75
2024/01/07 07:47:35;;;;;;;15.90;11.07;;;;;;;3.10;100.00;152161.19;4978773;28;20453;-76
2024/01/07 07:50:04;;;;;;;14.67;11.00;;;;;;;3.06;100.00;152150.91;4960925;28;20493;-76
2024/01/07 07:52:31;;;;;;;22.10;12.57;;;;;;;3.06;100.00;152150.91;4952016;28;20916;-76
2024/01/07 07:54:58;;;;;;;16.50;10.97;;;;;;;3.06;100.00;152152.22;4978936;28;20468;-77
2024/01/07 07:57:25;;;;;;;14.00;10.30;;;;;;;3.06;100.00;152150.91;4983530;28;20568;-77
2024/01/07 07:59:51;;;;;;;16.00;11.17;;;;;;;3.03;100.00;152143.19;4967419;28;20453;-77
2024/01/07 08:02:27;;;;;;;14.50;10.50;;;;;;;3.02;100.00;152140.59;4962153;28;20995;-77
2024/01/07 08:05:06;;;;;;;16.43;10.63;;;;;;;3.01;100.00;152138.06;4979112;28;20452;-77
2024/01/07 08:07:34;;;;;;;14.13;10.13;;;;;;;2.99;100.00;152132.91;4980363;28;20868;-77
2024/01/07 08:10:00;;;;;;;12.03;9.70;;;;;;;2.97;100.00;152129.03;4978335;28;20501;-75
2024/01/07 08:12:29;;;;;;;14.17;9.87;;;;;;;2.96;100.00;152125.19;4978815;28;20540;-77
2024/01/07 08:14:56;;;;;;;12.43;9.53;;;;;;;2.94;100.00;152120.00;4978601;28;20453;-76
2024/01/07 08:17:25;;;;;;;13.70;10.00;;;;;;;2.92;100.00;152116.16;4966617;28;20453;-76
2024/01/07 08:19:52;;;;;;;15.57;11.00;;;;;;;2.92;100.00;152114.88;4982916;28;20461;-77
2024/01/07 08:22:19;;;;;;;13.40;8.90;;;;;;;2.89;100.00;152107.16;4967968;28;20461;-76
2024/01/07 08:24:47;;;;;;;15.07;10.60;;;;;;;2.85;100.00;152098.19;4980914;28;20525;-77
2024/01/07 08:27:15;;;;;;;15.30;11.20;;;;;;;2.86;100.00;152100.72;4962584;28;21018;-77
2024/01/07 08:29:43;;;;;;;12.80;9.10;;;;;;;2.85;100.00;152096.88;4980448;28;20457;-76
2024/01/07 08:32:12;;;;;;;13.30;9.23;;;;;;;2.84;100.00;152094.28;4977384;28;20483;-77
2024/01/07 08:34:39;;;;;;;14.53;9.50;;;;;;;2.75;100.00;152071.16;4978906;28;20572;-77
2024/01/07 08:37:05;;;;;;;13.40;9.23;;;;;;;2.73;100.00;152067.28;4978727;28;20796;-77
2024/01/07 08:39:32;;;;;;;15.37;10.07;;;;;;;2.72;100.00;152063.44;4965547;28;20527;-78
2024/01/07 08:42:00;;;;;;;13.47;8.53;;;;;;;2.66;100.00;152048.00;4979111;28;20890;-77
2024/01/07 08:44:26;;;;;;;12.93;8.07;;;;;;;2.63;100.00;152041.56;4980310;28;20468;-77
2024/01/07 08:46:54;;;;;;;13.40;9.87;;;;;;;2.61;100.00;152036.44;4978397;28;20465;-77
2024/01/07 08:49:20;;;;;;;13.63;10.37;;;;;;;2.63;100.00;152040.25;4976631;28;20446;-77
2024/01/07 08:51:49;;;;;;;13.80;9.27;;;;;;;2.64;100.00;152042.84;4976718;28;20999;-75
2024/01/07 08:54:17;;;;;;;12.30;8.70;;;;;;;2.62;100.00;152037.72;4961413;28;20995;-77
2024/01/07 08:56:44;;;;;;;13.93;8.93;;;;;;;2.56;100.00;152022.28;4978107;28;20481;-77
2024/01/07 08:59:13;;;;;;;9.03;6.60;;;;;;;2.51;100.00;152010.72;4975581;28;20841;-77
2024/01/07 09:01:39;;;;;;;11.93;8.27;;;;;;;2.46;100.00;151999.09;4973094;28;20852;-76
2024/01/07 09:04:06;;;;;;;11.03;8.00;;;;;;;2.44;100.00;151992.69;4971878;28;20490;-77
2024/01/07 09:06:32;;;;;;;11.30;8.40;;;;;;;2.42;100.00;151988.84;4976023;28;20453;-77
2024/01/07 09:08:59;;;;;;;11.60;7.50;;;;;;;2.40;100.00;151982.41;4966281;28;20474;-76
2024/01/07 09:11:25;;;;;;;14.40;9.43;;;;;;;2.41;100.00;151986.25;4965594;28;20575;-76
2024/01/07 09:13:52;;;;;;;11.30;8.07;;;;;;;2.42;100.00;151988.84;4974842;28;21960;-76
2024/01/07 09:16:20;;;;;;;11.40;8.03;;;;;;;2.43;100.00;151991.44;4979258;28;20818;-76
2024/01/07 09:18:48;;;;;;;9.87;7.30;;;;;;;2.44;100.00;151993.97;4976648;28;20830;-76
2024/01/07 09:21:15;;;;;;;14.40;7.70;;;;;;;2.40;100.00;151983.72;4986581;28;20458;-88
2024/01/07 09:23:52;;;;;;;11.10;7.30;;;;;;;2.35;100.00;151970.84;4995897;28;20579;-88
2024/01/07 09:26:18;;;;;;;8.47;5.57;;;;;;;2.33;100.00;151964.44;4982903;28;20477;-87
2024/01/07 09:28:45;;;;;;;11.00;7.20;;;;;;;2.34;100.00;151968.25;4974110;28;20540;-89
2024/01/07 09:31:12;;;;;;;10.40;7.20;;;;;;;2.36;100.00;151973.41;4972435;28;20484;-88
2024/01/07 09:33:43;;;;;;;8.80;6.40;;;;;;;2.38;100.00;151978.53;4964449;28;20472;-76
2024/01/07 09:36:10;;;;;;;7.53;5.30;;;;;;;2.31;100.00;151960.53;4976589;28;20511;-76
2024/01/07 09:38:37;;;;;;;8.53;6.27;;;;;;;2.32;100.00;151961.84;4961786;28;20458;-89
2024/01/07 09:41:04;;;;;;;6.30;4.97;;;;;;;2.31;100.00;151960.53;4992728;28;21010;-88
2024/01/07 09:43:31;;;;;;;7.43;5.47;;;;;;;2.27;100.00;151950.28;4963835;28;20465;-89
2024/01/07 09:45:59;;;;;;;7.77;5.03;;;;;;;2.27;100.00;151948.97;4966505;28;20524;-88
2024/01/07 09:48:25;;;;;;;8.07;5.73;;;;;;;2.28;100.00;151952.81;4989667;28;20516;-90
2024/01/07 09:50:54;;;;;;;9.90;5.40;;;;;;;2.25;100.00;151945.09;4987680;28;20453;-90
2024/01/07 09:53:21;;;;;;;8.13;5.37;;;;;;;2.22;100.00;151937.44;4988153;28;20531;-92
2024/01/07 09:55:54;;;;;;;7.67;4.90;;;;;;;2.19;100.00;151929.72;4975757;28;20877;-89
2024/01/07 09:58:21;;;;;;;8.07;5.30;;;;;;;2.13;100.00;151914.25;4962161;28;20895;-89
2024/01/07 10:00:47;;;;;;;8.10;5.33;;;;;;;2.12;100.00;151910.44;4972308;28;21068;-89
2024/01/07 10:03:14;;;;;;;8.60;5.27;;;;;;;2.10;100.00;151905.25;4976543;28;20473;-90
2024/01/07 10:05:41;;;;;;;5.60;4.60;;;;;;;2.09;100.00;151903.94;4996162;28;20539;-91
2024/01/07 10:08:10;;;;;;;6.63;5.30;;;;;;;2.07;100.00;151897.53;4992499;28;20453;-89
2024/01/07 10:10:37;;;;;;;7.70;5.00;;;;;;;2.06;100.00;151896.28;4975054;28;20476;-88
2024/01/07 10:13:04;;;;;;;6.87;4.87;;;;;;;2.05;100.00;151893.69;4975315;28;20838;-90
2024/01/07 10:15:32;;;;;;;4.50;3.70;;;;;;;2.04;100.00;151889.84;4975625;28;20504;-90
2024/01/07 10:18:04;;;;;;;6.97;5.27;;;;;;;2.04;100.00;151889.84;4963040;28;20440;-89
2024/01/07 10:20:32;;;;;;;8.10;5.67;;;;;;;2.06;100.00;151896.28;4976953;28;20505;-89
2024/01/07 10:22:59;;;;;;;6.10;4.67;;;;;;;2.07;100.00;151898.81;4983749;28;20573;-90
2024/01/07 10:25:27;;;;;;;6.63;5.63;;;;;;;2.04;100.00;151891.09;4960471;28;20476;-89
2024/01/07 10:27:53;;;;;;;6.00;4.50;;;;;;;1.96;100.00;151870.53;4976262;28;21016;-91
2024/01/07 10:30:21;;;;;;;6.50;4.07;;;;;;;1.93;100.00;151862.88;4959471;28;20481;-90
2024/01/07 10:32:48;;;;;;;6.93;4.60;;;;;;;1.92;100.00;151860.28;4960428;28;20485;-91
2024/01/07 10:35:15;;;;;;;8.50;5.23;;;;;;;1.93;100.00;151862.88;4973755;28;20455;-91
2024/01/07 10:37:42;;;;;;;6.93;5.20;;;;;;;1.92;100.00;151858.97;4969921;28;20448;-91
2024/01/07 10:40:12;;;;;;;6.90;4.80;;;;;;;1.92;100.00;151860.28;4978050;28;20492;-91
2024/01/07 10:42:41;;;;;;;6.30;4.47;;;;;;;1.91;100.00;151857.69;4976521;28;20573;-91
2024/01/07 10:45:10;;;;;;;7.30;4.53;;;;;;;1.87;100.00;151847.41;4976569;28;20454;-91
2024/01/07 10:47:37;;;;;;;7.50;4.37;;;;;;;1.82;100.00;151834.56;4980296;28;20764;-91
2024/01/07 10:50:05;;;;;;;6.53;3.97;;;;;;;1.74;100.00;151814.00;4972812;28;20454;-89
2024/01/07 10:52:33;;;;;;;10.93;6.13;;;;;;;1.73;100.00;151812.72;4978611;28;20477;-90
2024/01/07 10:55:07;;;;;;;7.57;4.23;;;;;;;1.73;100.00;151811.41;4962758;28;20488;-89
2024/01/07 10:57:38;;;;;;;7.13;4.70;;;;;;;1.74;100.00;151814.00;4973729;28;20604;-89
2024/01/07 11:00:08;;;;;;;7.80;5.20;;;;;;;1.70;100.00;151805.00;4979560;28;20465;-89
2024/01/07 11:02:41;;;;;;;9.23;5.50;;;;;;;1.70;100.00;151803.69;4982658;28;20494;-89
2024/01/07 11:05:16;;;;;;;7.77;5.40;;;;;;;1.71;100.00;151806.28;4972483;28;20458;-89
2024/01/07 11:07:47;;;;;;;10.00;6.53;;;;;;;1.71;100.00;151806.28;4982831;28;20533;-88
2024/01/07 11:10:17;;;;;;;10.13;6.50;;;;;;;1.75;100.00;151816.56;4980808;28;20504;-88
2024/01/07 11:12:44;;;;;;;8.97;5.40;;;;;;;1.76;100.00;151819.13;4984707;28;20526;-89